< < Back
Terminal Aerodrome Forecast


Current Version              Previous Versions:   1  2  3  4  5  6  7  8  9  

Terminal Aerodrome Forecast

406
FTUS42 KCHS 041732
TAFCHS
TAF
KCHS 041732Z 0418/0518 28010G16KT P6SM FEW050
     FM050000 26006KT P6SM SKC
     FM051500 30011G16KT P6SM SCT060=

Latest METAR

428
SAUS80 KWBC 041900 CCB
MTRCHS
METAR KCHS 041856Z 26010G15KT 10SM SCT055 SCT250 27/11 A2965 RMK AO2
SLP038 T02720111


USA.gov is the U.S. government's official web portal to all federal, state and local government web resources and services.